This is the latest recevied weather packets stored in our database for station/object TA2NC-13. If no packets are shown the sender has not sent any weather packets the latest 10 day(s).
| Time | Temp. | Humidity | Pressure | Rain* | Wind** | Luminosity | Snow |
|---|---|---|---|---|---|---|---|
| 1777536001 | 20° C | 33% | 1017 hPa | 0 mm | - | - | - |
| 1777535401 | 19.44° C | 29% | 1017 hPa | 0 mm | - | - | - |
| 1777534800 | 20° C | 32% | 1017 hPa | 0 mm | - | - | - |
| 1777534201 | 19.44° C | 29% | 1017 hPa | 0 mm | - | - | - |
| 1777533601 | 18.89° C | 33% | 1017 hPa | 0 mm | - | - | - |
| 1777533001 | 18.33° C | 36% | 1017 hPa | 0 mm | - | - | - |
| 1777532401 | 18.33° C | 35% | 1017 hPa | 0 mm | - | - | - |
| 1777531801 | 18.33° C | 35% | 1017 hPa | 0 mm | - | - | - |
| 1777531201 | 17.22° C | 38% | 1017 hPa | 0 mm | - | - | - |
| 1777530601 | 17.22° C | 34% | 1017 hPa | 0 mm | - | - | - |
| 1777530001 | 16.11° C | 40% | 1017 hPa | 0 mm | - | - | - |
| 1777529400 | 16.11° C | 38% | 1017 hPa | 0 mm | - | - | - |
| 1777528800 | 15.56° C | 44% | 1017 hPa | 0 mm | - | - | - |
| 1777528201 | 15° C | 41% | 1017 hPa | 0 mm | - | - | - |
| 1777527601 | 14.44° C | 44% | 1017 hPa | 0 mm | - | - | - |
| 1777527001 | 11.11° C | 52% | 1017 hPa | 0 mm | - | - | - |
| 1777526401 | 10° C | 57% | 1017 hPa | 0 mm | - | - | - |
| 1777525801 | 8.89° C | 57% | 1017 hPa | 0 mm | - | - | - |
| 1777525201 | 8.33° C | 62% | 1017 hPa | 0 mm | - | - | - |
| 1777524601 | 7.22° C | 66% | 1017 hPa | 0 mm | - | - | - |
| 1777524001 | 6.67° C | 67% | 1017 hPa | 0 mm | - | - | - |
| 1777523401 | 6.11° C | 69% | 1017 hPa | 0 mm | - | - | - |
| 1777522801 | 5.56° C | 72% | 1017 hPa | 0 mm | - | - | - |
| 1777522201 | 5° C | 72% | 1017 hPa | 0 mm | - | - | - |
| 1777521601 | 5° C | 71% | 1017 hPa | 0 mm | - | - | - |
* Rain latest hour (hover to see other rain measurements)
** Current wind speed in m/s (hover to see current wind gust speed)